createdAt,value
2023-05-12T00:00:53.884Z,7.80
2023-05-12T00:03:22.309Z,7.50
2023-05-12T00:05:50.595Z,6.90
2023-05-12T00:08:18.773Z,6.57
2023-05-12T00:10:46.890Z,7.13
2023-05-12T00:13:15.187Z,6.40
2023-05-12T00:15:44.706Z,6.50
2023-05-12T00:18:12.918Z,6.53
2023-05-12T00:20:41.083Z,7.10
2023-05-12T00:23:09.238Z,6.20
2023-05-12T00:25:37.386Z,5.97
2023-05-12T00:28:05.589Z,5.70
2023-05-12T00:30:33.793Z,5.97
2023-05-12T00:33:03.420Z,5.73
2023-05-12T00:35:31.565Z,5.50
2023-05-12T00:37:59.721Z,5.67
2023-05-12T00:40:27.918Z,5.63
2023-05-12T00:42:56.027Z,5.70
2023-05-12T00:45:24.402Z,5.47
2023-05-12T00:47:53.431Z,5.27
2023-05-12T00:50:23.275Z,5.30
2023-05-12T00:52:51.624Z,5.87
2023-05-12T00:55:19.901Z,5.33
2023-05-12T00:57:48.103Z,4.77
2023-05-12T01:00:16.484Z,4.97
2023-05-12T01:02:44.738Z,5.67
2023-05-12T01:05:13.285Z,4.90
2023-05-12T01:07:43.971Z,4.90
2023-05-12T01:10:19.372Z,4.73
2023-05-12T01:12:48.261Z,4.70
2023-05-12T01:15:16.584Z,5.13
2023-05-12T01:17:47.006Z,4.57
2023-05-12T01:20:16.949Z,4.60
2023-05-12T01:22:47.891Z,4.50
2023-05-12T01:25:16.710Z,3.83
2023-05-12T01:27:46.874Z,4.10
2023-05-12T01:30:17.788Z,4.40
2023-05-12T01:32:46.457Z,4.23
2023-05-12T01:35:14.630Z,4.83
2023-05-12T01:37:42.746Z,4.70
2023-05-12T01:40:11.313Z,5.27
2023-05-12T01:42:40.950Z,5.97
2023-05-12T01:45:11.340Z,5.57
2023-05-12T01:47:39.539Z,6.10
2023-05-12T01:50:08.119Z,6.53
2023-05-12T01:52:36.779Z,6.20
2023-05-12T01:55:05.110Z,6.97
2023-05-12T01:57:33.824Z,7.07
2023-05-12T02:00:02.006Z,6.83
2023-05-12T02:02:33.913Z,7.63
2023-05-12T02:05:02.086Z,7.80
2023-05-12T02:07:30.269Z,6.60
2023-05-12T02:09:58.486Z,6.87
2023-05-12T02:12:26.648Z,6.90
2023-05-12T02:14:54.843Z,6.80
2023-05-12T02:17:25.110Z,7.23
2023-05-12T02:19:54.742Z,7.57
2023-05-12T02:22:22.890Z,7.43
2023-05-12T02:24:51.076Z,8.10
2023-05-12T02:27:19.197Z,8.10
2023-05-12T02:29:47.390Z,7.90
2023-05-12T02:32:15.546Z,8.40
2023-05-12T02:34:43.658Z,8.30
2023-05-12T02:37:13.095Z,10.27
2023-05-12T02:39:41.253Z,9.03
2023-05-12T02:42:09.525Z,9.50
2023-05-12T02:44:37.694Z,9.80
2023-05-12T02:47:06.048Z,9.47
2023-05-12T02:49:34.246Z,9.33
2023-05-12T02:52:02.560Z,9.77
2023-05-12T02:54:32.054Z,10.00
2023-05-12T02:57:01.868Z,10.37
2023-05-12T02:59:30.644Z,9.97
2023-05-12T03:01:58.840Z,9.17
2023-05-12T03:04:27.318Z,9.27
2023-05-12T03:06:55.420Z,8.03
2023-05-12T03:09:23.587Z,8.80
2023-05-12T03:11:53.088Z,7.57
2023-05-12T03:14:21.536Z,6.80
2023-05-12T03:16:49.759Z,7.50
2023-05-12T03:19:17.914Z,8.23
2023-05-12T03:21:46.124Z,7.10
2023-05-12T03:24:14.261Z,7.00
2023-05-12T03:26:42.454Z,7.17
2023-05-12T03:29:11.927Z,8.13
2023-05-12T03:31:40.114Z,7.43
2023-05-12T03:34:08.401Z,7.27
2023-05-12T03:36:37.307Z,8.97
2023-05-12T03:39:05.586Z,6.60
2023-05-12T03:41:33.844Z,6.80
2023-05-12T03:44:02.040Z,7.70
2023-05-12T03:46:31.726Z,6.67
2023-05-12T03:49:00.071Z,6.57
2023-05-12T03:51:28.847Z,7.90
2023-05-12T03:53:57.008Z,9.83
2023-05-12T03:56:25.140Z,9.27
2023-05-12T03:58:53.327Z,9.40
2023-05-12T04:01:21.519Z,10.20
2023-05-12T04:03:51.120Z,13.03
2023-05-12T04:06:19.389Z,14.17
2023-05-12T04:08:47.542Z,18.40
2023-05-12T04:11:15.724Z,13.90
2023-05-12T04:13:43.981Z,13.03
2023-05-12T04:16:12.231Z,13.80
2023-05-12T04:18:40.450Z,15.47
2023-05-12T04:21:10.023Z,11.13
2023-05-12T04:23:38.250Z,12.07
2023-05-12T04:26:06.393Z,16.57
2023-05-12T04:28:34.579Z,14.37
2023-05-12T04:31:05.933Z,16.07
2023-05-12T04:33:34.136Z,19.10
2023-05-12T04:36:02.403Z,21.17
2023-05-12T04:38:31.938Z,25.33
2023-05-12T04:41:00.414Z,25.47
2023-05-12T04:46:00.369Z,30.57
2023-05-12T04:48:29.166Z,30.10
2023-05-12T04:50:57.319Z,32.23
2023-05-12T04:53:25.530Z,38.73
2023-05-12T04:55:56.454Z,32.13
2023-05-12T04:58:24.655Z,25.60
2023-05-12T05:00:52.927Z,26.03
2023-05-12T05:03:21.322Z,34.57
2023-05-12T05:05:49.919Z,34.67
2023-05-12T05:08:18.382Z,41.03
2023-05-12T05:10:46.630Z,47.30
2023-05-12T05:13:16.504Z,44.30
2023-05-12T05:15:51.084Z,49.10
2023-05-12T05:18:21.690Z,53.73
2023-05-12T05:20:57.827Z,51.33
2023-05-12T05:23:27.104Z,66.23
2023-05-12T05:25:55.464Z,62.13
2023-05-12T05:28:26.514Z,61.30
2023-05-12T05:30:54.736Z,60.40
2023-05-12T05:33:22.956Z,71.00
2023-05-12T05:35:51.207Z,58.80
2023-05-12T05:38:19.473Z,60.37
2023-05-12T05:40:53.533Z,57.30
2023-05-12T05:43:22.607Z,64.17
2023-05-12T05:45:52.202Z,69.77
2023-05-12T05:48:20.840Z,68.23
2023-05-12T05:50:49.154Z,68.87
2023-05-12T05:53:18.283Z,74.67
2023-05-12T05:55:46.569Z,70.23
2023-05-12T05:58:15.365Z,80.60
2023-05-12T06:00:43.703Z,73.37
2023-05-12T06:03:13.293Z,69.90
2023-05-12T06:05:42.202Z,71.47
2023-05-12T06:08:13.100Z,74.00
2023-05-12T06:10:42.014Z,92.70
2023-05-12T06:13:10.247Z,72.73
2023-05-12T06:15:38.495Z,78.13
2023-05-12T06:18:06.842Z,75.97
2023-05-12T06:20:36.545Z,85.73
2023-05-12T06:23:05.529Z,91.50
2023-05-12T06:25:34.163Z,95.60
2023-05-12T06:28:02.420Z,99.73
2023-05-12T06:30:30.609Z,108.63
2023-05-12T06:32:59.474Z,103.00
2023-05-12T06:35:27.687Z,100.57
2023-05-12T06:37:57.120Z,99.70
2023-05-12T06:40:25.356Z,105.97
2023-05-12T06:42:53.455Z,109.97
2023-05-12T06:45:23.433Z,121.40
2023-05-12T06:47:52.034Z,139.70
2023-05-12T06:50:20.325Z,149.23
2023-05-12T06:52:48.524Z,157.53
2023-05-12T06:55:20.053Z,153.53
2023-05-12T06:57:51.450Z,157.27
2023-05-12T07:00:19.988Z,148.10
2023-05-12T07:02:48.190Z,168.10
2023-05-12T07:05:16.606Z,204.20
2023-05-12T07:07:44.818Z,200.40
2023-05-12T07:10:13.162Z,167.63
2023-05-12T07:12:42.768Z,172.10
2023-05-12T07:15:11.308Z,164.73
2023-05-12T07:17:39.533Z,184.10
2023-05-12T07:20:08.781Z,175.73
2023-05-12T07:22:38.769Z,183.43
2023-05-12T07:25:08.156Z,178.67
2023-05-12T07:27:36.377Z,197.83
2023-05-12T07:30:06.188Z,200.33
2023-05-12T07:32:34.458Z,218.63
2023-05-12T07:35:03.648Z,213.70
2023-05-12T07:37:31.889Z,205.67
2023-05-12T07:40:00.078Z,211.10
2023-05-12T07:42:28.305Z,204.80
2023-05-12T07:44:56.482Z,187.27
2023-05-12T07:47:26.073Z,146.67
2023-05-12T07:49:54.276Z,137.77
2023-05-12T07:52:22.425Z,137.80
2023-05-12T07:54:50.610Z,90.50
2023-05-12T07:57:18.747Z,93.60
2023-05-12T07:59:46.927Z,75.40
2023-05-12T08:02:17.112Z,67.60
2023-05-12T08:04:46.642Z,61.10
2023-05-12T08:07:15.668Z,85.23
2023-05-12T08:09:43.844Z,82.47
2023-05-12T08:12:12.185Z,78.53
2023-05-12T08:14:40.396Z,107.00
2023-05-12T08:17:08.587Z,115.90
2023-05-12T08:19:36.848Z,51.63
2023-05-12T08:22:06.585Z,37.17
2023-05-12T08:24:34.714Z,40.00
2023-05-12T08:27:02.957Z,44.27
2023-05-12T08:29:31.137Z,26.93
2023-05-12T08:31:59.678Z,21.57
2023-05-12T08:34:27.997Z,19.00
2023-05-12T08:36:56.537Z,17.43
2023-05-12T08:39:28.691Z,17.73
2023-05-12T08:42:02.195Z,18.10
2023-05-12T08:44:31.276Z,18.23
2023-05-12T08:47:00.116Z,18.47
2023-05-12T08:49:31.148Z,18.40
2023-05-12T08:52:00.124Z,18.23
2023-05-12T08:54:30.354Z,17.63
2023-05-12T08:59:30.139Z,18.20
2023-05-12T09:01:58.613Z,17.10
2023-05-12T09:04:27.011Z,17.53
2023-05-12T09:06:56.077Z,17.67
2023-05-12T09:09:25.444Z,16.87
2023-05-12T09:11:58.187Z,17.10
2023-05-12T09:14:27.034Z,17.47
2023-05-12T09:16:59.466Z,17.23
2023-05-12T09:19:27.790Z,17.40
2023-05-12T09:21:56.037Z,16.37
2023-05-12T09:24:34.947Z,15.50
2023-05-12T09:27:04.868Z,16.77
2023-05-12T09:29:39.420Z,15.87
2023-05-12T09:32:13.405Z,15.40
2023-05-12T09:34:41.765Z,15.10
2023-05-12T09:37:10.005Z,16.10
2023-05-12T09:39:38.429Z,15.63
2023-05-12T09:42:13.463Z,16.33
2023-05-12T09:44:42.379Z,17.20
2023-05-12T09:47:10.831Z,16.37
2023-05-12T09:49:39.089Z,16.20
2023-05-12T09:52:07.570Z,15.70
2023-05-12T09:54:36.432Z,15.80
2023-05-12T09:57:05.655Z,15.53
2023-05-12T09:59:36.416Z,15.40
2023-05-12T10:02:07.360Z,15.30
2023-05-12T10:04:40.183Z,14.27
2023-05-12T10:07:10.491Z,14.20
2023-05-12T10:09:42.018Z,13.73
2023-05-12T10:12:10.847Z,11.60
2023-05-12T10:14:40.532Z,12.60
2023-05-12T10:17:09.430Z,12.13
2023-05-12T10:19:38.752Z,11.80
2023-05-12T10:22:07.525Z,11.93
2023-05-12T10:24:36.544Z,11.93
2023-05-12T10:27:06.646Z,12.20
2023-05-12T10:29:35.408Z,11.23
2023-05-12T10:32:06.388Z,10.97
2023-05-12T10:34:35.130Z,11.57
2023-05-12T10:37:08.199Z,12.18
2023-05-12T10:39:36.958Z,13.07
2023-05-12T10:42:08.335Z,13.90
2023-05-12T10:44:36.870Z,13.50
2023-05-12T10:47:14.563Z,13.80
2023-05-12T10:49:43.167Z,13.37
2023-05-12T10:52:12.983Z,13.67
2023-05-12T10:54:44.245Z,12.38
2023-05-12T10:57:18.767Z,12.90
2023-05-12T10:59:51.787Z,15.00
2023-05-12T11:02:27.619Z,14.57
2023-05-12T11:04:58.012Z,15.88
2023-05-12T11:07:27.857Z,15.43
2023-05-12T11:09:58.949Z,15.25
2023-05-12T11:12:32.453Z,15.57
2023-05-12T11:15:01.705Z,14.98
2023-05-12T11:17:31.935Z,15.87
2023-05-12T11:20:01.037Z,15.35
2023-05-12T11:22:29.371Z,16.02
2023-05-12T11:24:57.660Z,15.30
2023-05-12T11:27:25.902Z,15.90
2023-05-12T11:29:57.837Z,15.00
2023-05-12T11:32:26.173Z,15.63
2023-05-12T11:34:55.795Z,16.23
2023-05-12T11:37:24.244Z,14.93
2023-05-12T11:39:53.685Z,15.20
2023-05-12T11:42:23.695Z,15.65
2023-05-12T11:44:55.338Z,15.38
2023-05-12T11:47:23.640Z,15.32
2023-05-12T11:49:52.645Z,14.20
2023-05-12T11:52:23.302Z,14.02
2023-05-12T11:54:52.108Z,14.48
2023-05-12T11:57:27.226Z,14.95
2023-05-12T11:59:58.955Z,15.70
2023-05-12T12:02:27.403Z,15.80
2023-05-12T12:04:55.686Z,15.65
2023-05-12T12:07:32.407Z,14.75
2023-05-12T12:10:01.834Z,14.20
2023-05-12T12:12:29.980Z,14.00
2023-05-12T12:15:00.207Z,14.50
2023-05-12T12:17:31.223Z,13.73
2023-05-12T12:19:59.502Z,14.05
2023-05-12T12:22:28.023Z,14.25
2023-05-12T12:24:57.561Z,13.43
2023-05-12T12:27:25.984Z,11.40
2023-05-12T12:29:54.276Z,9.18
2023-05-12T12:32:22.430Z,8.32
2023-05-12T12:34:50.639Z,9.05
2023-05-12T12:37:18.818Z,7.75
2023-05-12T12:39:47.698Z,8.25
2023-05-12T12:42:17.462Z,8.80
2023-05-12T12:44:47.937Z,7.35
2023-05-12T12:47:16.166Z,5.10
2023-05-12T12:49:44.890Z,8.82
2023-05-12T12:52:13.064Z,10.30
2023-05-12T12:54:41.907Z,11.38
2023-05-12T12:57:10.845Z,11.60
2023-05-12T12:59:40.414Z,10.85
2023-05-12T13:02:09.066Z,10.05
2023-05-12T13:04:37.669Z,9.45
2023-05-12T13:07:06.004Z,10.13
2023-05-12T13:09:35.389Z,8.70
2023-05-12T13:12:03.696Z,9.20
2023-05-12T13:14:31.811Z,9.45
2023-05-12T13:17:01.385Z,10.63
2023-05-12T13:19:29.653Z,10.68
2023-05-12T13:21:57.795Z,10.10
2023-05-12T13:24:26.009Z,10.98
2023-05-12T13:26:54.244Z,10.90
2023-05-12T13:29:22.447Z,10.95
2023-05-12T13:31:50.657Z,10.85
2023-05-12T13:34:21.293Z,9.60
2023-05-12T13:36:49.535Z,8.48
2023-05-12T13:39:19.507Z,7.82
2023-05-12T13:41:47.922Z,9.07
2023-05-12T13:44:16.093Z,9.75
2023-05-12T13:46:44.316Z,9.95
2023-05-12T13:49:12.894Z,9.27
2023-05-12T13:51:45.454Z,8.85
2023-05-12T13:54:13.585Z,9.40
2023-05-12T13:56:41.872Z,9.15
2023-05-12T13:59:10.410Z,9.45
2023-05-12T14:01:39.159Z,10.85
2023-05-12T14:04:07.420Z,10.18
2023-05-12T14:06:35.720Z,10.30
2023-05-12T14:09:06.012Z,10.25
2023-05-12T14:11:34.179Z,10.60
2023-05-12T14:14:03.357Z,10.18
2023-05-12T14:16:31.674Z,10.35
2023-05-12T14:19:00.793Z,10.00
2023-05-12T14:21:28.971Z,9.77
2023-05-12T14:23:57.120Z,9.20
2023-05-12T14:26:26.644Z,9.15
2023-05-12T14:28:54.826Z,8.63
2023-05-12T14:31:23.093Z,8.48
2023-05-12T14:33:52.224Z,9.73
2023-05-12T14:36:20.707Z,9.63
2023-05-12T14:38:49.662Z,9.27
2023-05-12T14:41:17.874Z,9.25
2023-05-12T14:43:47.371Z,9.10
2023-05-12T14:46:16.044Z,9.07
2023-05-12T14:48:44.383Z,9.20
2023-05-12T14:51:12.510Z,9.02
2023-05-12T14:53:40.714Z,8.10
2023-05-12T14:56:08.864Z,8.63
2023-05-12T14:58:37.071Z,8.18
2023-05-12T15:01:09.283Z,7.63
2023-05-12T15:03:37.797Z,7.50
2023-05-12T15:06:07.861Z,7.75
2023-05-12T15:08:36.521Z,8.43
2023-05-12T15:11:04.762Z,8.70
2023-05-12T15:13:32.949Z,8.10
2023-05-12T15:16:01.376Z,7.68
2023-05-12T15:18:30.966Z,7.93
2023-05-12T15:20:59.261Z,8.93
2023-05-12T15:23:27.411Z,8.23
2023-05-12T15:25:55.515Z,7.80
2023-05-12T15:28:23.708Z,7.78
2023-05-12T15:31:01.161Z,7.72
2023-05-12T15:33:32.204Z,7.82
2023-05-12T15:36:00.777Z,7.25
2023-05-12T15:38:28.912Z,7.25
2023-05-12T15:40:57.071Z,7.28
2023-05-12T15:43:25.275Z,6.70
2023-05-12T15:45:53.474Z,6.03
2023-05-12T15:48:21.721Z,6.10
2023-05-12T15:50:51.286Z,5.45
2023-05-12T15:53:19.428Z,6.00
2023-05-12T15:55:48.662Z,6.20
2023-05-12T15:58:16.889Z,5.43
2023-05-12T16:00:45.178Z,6.10
2023-05-12T16:03:13.624Z,5.53
2023-05-12T16:05:41.837Z,5.40
2023-05-12T16:08:11.369Z,5.50
2023-05-12T16:10:39.533Z,5.38
2023-05-12T16:13:07.683Z,5.22
2023-05-12T16:15:35.937Z,5.05
2023-05-12T16:18:06.415Z,4.80
2023-05-12T16:20:35.954Z,4.43
2023-05-12T16:23:04.599Z,4.43
2023-05-12T16:25:34.156Z,5.22
2023-05-12T16:28:02.338Z,4.85
2023-05-12T16:30:30.561Z,5.55
2023-05-12T16:32:58.723Z,5.53
2023-05-12T16:35:26.947Z,5.97
2023-05-12T16:37:55.412Z,6.22
2023-05-12T16:40:23.529Z,6.68
2023-05-12T16:42:54.771Z,6.68
2023-05-12T16:45:23.440Z,6.75
2023-05-12T16:47:52.210Z,6.85
2023-05-12T16:50:20.550Z,6.82
2023-05-12T16:52:48.763Z,8.05
2023-05-12T16:55:16.913Z,7.70
2023-05-12T16:57:45.102Z,7.80
2023-05-12T17:00:15.496Z,8.52
2023-05-12T17:02:43.817Z,8.52
2023-05-12T17:05:12.330Z,8.73
2023-05-12T17:07:40.507Z,8.63
2023-05-12T17:10:08.974Z,8.70
2023-05-12T17:12:37.677Z,9.15
2023-05-12T17:15:08.511Z,9.00
2023-05-12T17:17:38.409Z,8.70
2023-05-12T17:20:06.951Z,8.88
2023-05-12T17:22:41.193Z,8.77
2023-05-12T17:25:09.740Z,8.48
2023-05-12T17:27:37.919Z,7.50
2023-05-12T17:30:06.470Z,3.03
2023-05-12T17:32:34.692Z,3.05
2023-05-12T17:35:04.450Z,3.33
2023-05-12T17:37:33.549Z,2.65
2023-05-12T17:40:01.780Z,3.13
2023-05-12T17:42:31.366Z,3.63
2023-05-12T17:44:59.685Z,3.20
2023-05-12T17:47:28.308Z,3.60
2023-05-12T17:49:56.605Z,3.35
2023-05-12T17:52:26.262Z,3.00
2023-05-12T17:54:57.202Z,3.60
2023-05-12T17:57:25.619Z,3.53
2023-05-12T17:59:53.778Z,3.90
2023-05-12T18:02:22.066Z,3.83
2023-05-12T18:04:50.311Z,4.05
2023-05-12T18:07:18.490Z,4.03
2023-05-12T18:09:47.950Z,3.42
2023-05-12T18:12:17.986Z,3.92
2023-05-12T18:14:46.646Z,4.72
2023-05-12T18:17:15.204Z,4.32
2023-05-12T18:19:43.455Z,4.93
2023-05-12T18:22:11.679Z,5.47
2023-05-12T18:24:39.858Z,6.10
2023-05-12T18:27:09.386Z,5.88
2023-05-12T18:29:37.533Z,6.35
2023-05-12T18:32:06.048Z,6.53
2023-05-12T18:34:34.246Z,7.18
2023-05-12T18:37:02.781Z,7.20
2023-05-12T18:39:31.014Z,7.05
2023-05-12T18:41:59.201Z,7.60
2023-05-12T18:44:28.939Z,7.40
2023-05-12T18:46:57.121Z,8.23
2023-05-12T18:49:25.320Z,8.63
2023-05-12T18:51:53.473Z,8.93
2023-05-12T18:54:21.667Z,10.02
2023-05-12T18:56:50.816Z,11.05
2023-05-12T18:59:19.256Z,10.25
2023-05-12T19:01:48.843Z,11.50
2023-05-12T19:04:17.224Z,12.43
2023-05-12T19:06:45.388Z,13.15
2023-05-12T19:09:13.539Z,13.27
2023-05-12T19:11:42.451Z,14.25
2023-05-12T19:14:10.659Z,14.60
2023-05-12T19:16:39.845Z,17.08
2023-05-12T19:19:09.548Z,16.77
2023-05-12T19:21:37.872Z,16.70
2023-05-12T19:24:06.196Z,16.85
2023-05-12T19:26:34.401Z,15.98
2023-05-12T19:29:02.602Z,16.70
2023-05-12T19:31:31.883Z,19.02
2023-05-12T19:34:00.030Z,19.20
2023-05-12T19:36:29.789Z,18.65
2023-05-12T19:38:59.604Z,16.95
2023-05-12T19:41:28.518Z,18.13
2023-05-12T19:43:56.730Z,17.92
2023-05-12T19:46:24.978Z,18.10
2023-05-12T19:48:53.673Z,17.98
2023-05-12T19:51:21.838Z,18.58
2023-05-12T19:53:51.353Z,18.55
2023-05-12T19:56:19.733Z,18.77
2023-05-12T19:58:47.984Z,18.52
2023-05-12T20:01:16.121Z,18.45
2023-05-12T20:03:44.346Z,17.70
2023-05-12T20:06:12.604Z,17.85
2023-05-12T20:08:40.790Z,19.00
2023-05-12T20:11:10.310Z,18.97
2023-05-12T20:13:38.427Z,18.63
2023-05-12T20:16:06.965Z,18.10
2023-05-12T20:18:35.388Z,19.03
2023-05-12T20:21:03.585Z,19.08
2023-05-12T20:23:32.058Z,19.95
2023-05-12T20:26:00.219Z,19.50
2023-05-12T20:28:29.776Z,19.53
2023-05-12T20:30:57.975Z,19.50
2023-05-12T20:33:26.191Z,19.30
2023-05-12T20:35:54.326Z,19.23
2023-05-12T20:38:24.221Z,18.90
2023-05-12T20:40:52.392Z,18.63
2023-05-12T20:43:20.597Z,18.48
2023-05-12T20:45:50.207Z,18.43
2023-05-12T20:48:18.410Z,17.53
2023-05-12T20:50:46.635Z,17.90
2023-05-12T20:53:15.068Z,17.23
2023-05-12T20:55:43.954Z,15.82
2023-05-12T20:58:12.064Z,14.80
2023-05-12T21:00:40.236Z,14.23
2023-05-12T21:03:14.380Z,14.80
2023-05-12T21:05:47.569Z,14.03
2023-05-12T21:08:15.881Z,14.27
2023-05-12T21:10:44.078Z,13.23
2023-05-12T21:13:12.368Z,13.27
2023-05-12T21:15:40.600Z,13.60
2023-05-12T21:18:10.145Z,13.50
2023-05-12T21:20:38.885Z,12.73
2023-05-12T21:23:09.315Z,13.63
2023-05-12T21:25:37.450Z,12.70
2023-05-12T21:28:05.796Z,12.70
2023-05-12T21:30:35.673Z,12.43
2023-05-12T21:33:05.174Z,12.80
2023-05-12T21:35:34.744Z,12.17
2023-05-12T21:38:02.948Z,11.87
2023-05-12T21:40:31.058Z,12.13
2023-05-12T21:42:59.276Z,12.40
2023-05-12T21:45:27.365Z,12.55
2023-05-12T21:47:55.656Z,11.60
2023-05-12T21:50:23.796Z,11.77
2023-05-12T21:52:53.343Z,12.40
2023-05-12T21:55:21.595Z,12.03
2023-05-12T21:57:49.814Z,12.67
2023-05-12T22:00:19.959Z,12.23
2023-05-12T22:02:48.834Z,12.10
2023-05-12T22:05:17.102Z,12.70
2023-05-12T22:07:45.218Z,12.27
2023-05-12T22:10:14.718Z,12.67
2023-05-12T22:12:43.030Z,12.77
2023-05-12T22:15:11.536Z,12.73
2023-05-12T22:17:39.710Z,13.17
2023-05-12T22:20:09.110Z,12.53
2023-05-12T22:22:37.350Z,12.80
2023-05-12T22:25:05.805Z,13.20
2023-05-12T22:27:35.315Z,13.00
2023-05-12T22:30:03.619Z,13.20
2023-05-12T22:32:31.888Z,13.90
2023-05-12T22:35:00.114Z,14.80
2023-05-12T22:37:28.366Z,13.57
2023-05-12T22:39:56.590Z,14.47
2023-05-12T22:42:24.770Z,14.23
2023-05-12T22:44:54.377Z,15.03
2023-05-12T22:47:22.599Z,14.30
2023-05-12T22:49:50.908Z,15.33
2023-05-12T22:52:19.147Z,14.50
2023-05-12T22:54:47.319Z,15.30
2023-05-12T22:57:15.522Z,15.53
2023-05-12T22:59:43.698Z,15.50
2023-05-12T23:02:13.246Z,16.03
2023-05-12T23:04:41.461Z,15.60
2023-05-12T23:07:09.936Z,16.00
2023-05-12T23:09:38.164Z,16.07
2023-05-12T23:12:07.121Z,16.37
2023-05-12T23:14:35.352Z,16.33
2023-05-12T23:17:03.621Z,15.90
2023-05-12T23:19:33.156Z,15.63
2023-05-12T23:22:01.289Z,15.90
2023-05-12T23:24:29.483Z,16.30
2023-05-12T23:26:57.620Z,15.80
2023-05-12T23:29:25.964Z,15.80
2023-05-12T23:31:54.271Z,15.20
2023-05-12T23:34:22.559Z,15.70
2023-05-12T23:36:52.165Z,15.53
2023-05-12T23:39:20.348Z,15.30
2023-05-12T23:41:49.551Z,14.33
2023-05-12T23:44:18.180Z,14.60
2023-05-12T23:46:46.489Z,14.67
2023-05-12T23:49:14.778Z,15.60
2023-05-12T23:51:42.948Z,15.00
2023-05-12T23:54:12.428Z,14.33
2023-05-12T23:56:40.721Z,14.60
2023-05-12T23:59:09.086Z,13.50
